Terminal Aerodrome Forecast
Issued by NWS

Home | Current Version | Previous Version | Text Only | Print | Product List | Glossary On
Versions: 1 2 3 4 5 6 7 8 9 10 11 12 13 14 15 16 17 18 19
000
FTUS46 KSTO 241734
TAFRDD
TAF
KRDD 241734Z 2418/2518 34002KT 4SM BR OVC005
      TEMPO 2418/2419 1/2SM FG OVC002
     FM242200 36004KT P6SM SCT250
     FM250500 VRB02KT 4SM BR FEW003 OVC100=

USA.gov is the U.S. government's official web portal to all federal, state and local government web resources and services.